Warm Springs, VA (24484)

2:19 PM EST on February 08, 2016 (GMT -0500)
Thomastown | | Change Station
CLOSE
Current Station
Personal Weather Station
Location: Hot Springs, VA
Elevation: 2290 ft
Nearby Weather Stations
Active Advisory: Winter Storm Watch

Elev 2290 ft 38.01 °N, 79.84 °W | Updated 1 second ago

Snow
Snow
35.2 °F
Feels Like 35 °F
N
2.2
Wind Variable Wind from WNW
Gusts 2.2 mph

Today
High -- | Low -- °F
--% Chance of Precip.
Yesterday
High -- | Low -- °F
Precip. -- in
Pressure 29.53 in
Visibility 7.0 miles
Clouds Scattered Clouds 800 ft
Scattered Clouds 2800 ft
Overcast 4700 ft
Windchill 35 °F
Dew Point 14 °F
Humidity 41%
Rainfall 0.00 in
Snow Depth Not available.
7:17 AM 5:49 PM
New Moon, 0% visible
METAR KHSP 081855Z AUTO 19005KT 7SM UP SCT008 SCT028 OVC047 00/M02 A2953 RMK AO2 T00001017
Pressure 29.53 in
Visibility 7.0 miles
Clouds Scattered Clouds 800 ft
Scattered Clouds 2800 ft
Overcast 4700 ft
Windchill 35 °F
Dew Point 14 °F
Humidity 41%
Rainfall 0.00 in
Snow Depth Not available.
7:17 AM 5:49 PM
New Moon, 0% visible
METAR KHSP 081855Z AUTO 19005KT 7SM UP SCT008 SCT028 OVC047 00/M02 A2953 RMK AO2 T00001017

10-Day Weather Forecast

Almanac

Astronomy

Feb. 08, 2016 Rise Set
Actual Time
Civil Twilight
Nautical Twilight
Astronomical Twilight
Moon
Length of Visible Light
Length of Day
Tomorrow will be .
, % of the Moon is Illuminated

Today's Extremes

State Highs State Lows

Community

WunderPhotos

Upload Photos

1,891,497 photos uploaded!

WunderBlog® & News

Nearby

Air Quality

  Air Quality AQ Index Pollutant
Not available.

Snow Depth

Station Depth Elevation

Earthquake Activity

City Distance Mag. Time & Date
Minimum magnitude displayed is 2.5.

Coastal Water Temperatures

Place Temperature

Stations

Nearby Weather Stations

Station Location Temp. Windchill Dew Point Humidity Wind Precip. Elev Updated Type
                   

Watches & Warnings

Winter Storm Watch
Issued: 10:45 AM EST Feb. 8, 2016 – National Weather Service

... Winter Storm Watch remains in effect from 6 PM EST this
evening through Thursday morning...

* locations... along and just west of the Blue Ridge mountains.

* Hazard types... snow showers.

* Accumulations... occasional snow showers will persist through
mid week resulting in moderate to heavy accumulations of snow
especially along higher ridge tops and west facing slopes.

* Timing... rain mixed with snow today will change to all snow
tonight... with all snow expected the rest of the week.

* Impacts... roads will become snow covered and slick.

* Temperatures... in the 30s today... dropping below freezing
tonight and remaining in the teens and 20s for the rest of the
week.

* Wind chills... as cold as 5 to 15 below zero Wednesday night.

Precautionary/preparedness actions...

A Winter Storm Watch means there is a potential for significant
snow that may impact travel. Continue to monitor the latest
forecasts.


Rcs